Time;durP1;ratioP1;P1;durP2;ratioP2;P2;SDS_P1;SDS_P2;PMS_P1;PMS_P2;Temp;Humidity;BMP_temperature;BMP_pressure;BME280_temperature;BME280_humidity;BME280_pressure;Samples;Min_cycle;Max_cycle;Signal;HPM_P1;HPM_P2
2023/03/09 00:00:08;;;;;;;5.00;4.17;;;14.70;49.30;;;;;;5043725;28;20457;-79
2023/03/09 00:02:37;;;;;;;4.87;4.00;;;14.70;49.30;;;;;;5036956;28;20476;-79
2023/03/09 00:05:05;;;;;;;4.53;4.13;;;14.70;49.50;;;;;;5043986;28;20458;-78
2023/03/09 00:07:33;;;;;;;4.73;4.33;;;14.70;49.40;;;;;;5048131;28;20530;-79
2023/03/09 00:10:01;;;;;;;5.17;4.43;;;14.70;49.50;;;;;;5047947;28;20439;-77
2023/03/09 00:12:32;;;;;;;5.93;4.30;;;14.70;49.50;;;;;;5046758;28;20467;-79
2023/03/09 00:15:00;;;;;;;5.00;4.60;;;14.70;49.50;;;;;;5043345;28;20463;-79
2023/03/09 00:17:28;;;;;;;9.60;4.80;;;14.70;49.40;;;;;;5050414;28;20447;-81
2023/03/09 00:20:00;;;;;;;5.00;4.27;;;14.70;49.40;;;;;;5038110;28;20451;-79
2023/03/09 00:22:28;;;;;;;8.53;4.37;;;14.60;49.40;;;;;;5063793;28;20499;-80
2023/03/09 00:24:56;;;;;;;4.40;3.97;;;14.60;49.40;;;;;;5051025;28;20470;-80
2023/03/09 00:27:24;;;;;;;12.33;4.53;;;14.60;49.50;;;;;;5051031;28;20490;-82
2023/03/09 00:29:54;;;;;;;7.33;4.50;;;14.60;49.60;;;;;;5035285;28;20467;-81
2023/03/09 00:32:24;;;;;;;4.77;4.27;;;14.60;49.70;;;;;;5043097;28;20441;-80
2023/03/09 00:34:52;;;;;;;6.33;4.40;;;14.60;49.60;;;;;;5041104;28;20475;-81
2023/03/09 00:37:21;;;;;;;6.13;4.70;;;14.60;49.60;;;;;;5038935;28;20453;-80
2023/03/09 00:39:49;;;;;;;4.33;4.00;;;14.60;49.60;;;;;;5052045;28;20454;-79
2023/03/09 00:42:17;;;;;;;5.23;4.73;;;14.60;49.70;;;;;;5045420;28;20530;-79
2023/03/09 00:44:46;;;;;;;4.50;4.10;;;14.60;49.70;;;;;;5052369;28;20450;-79
2023/03/09 00:47:15;;;;;;;6.23;4.73;;;14.60;49.80;;;;;;5034117;28;20440;-81
2023/03/09 00:49:43;;;;;;;6.80;5.87;;;14.50;49.60;;;;;;5031981;28;20453;-81
2023/03/09 00:52:11;;;;;;;7.00;5.77;;;14.50;49.80;;;;;;5037083;28;20452;-79
2023/03/09 00:54:39;;;;;;;6.60;5.60;;;14.50;49.70;;;;;;5042236;28;20475;-80
2023/03/09 00:57:07;;;;;;;6.63;5.70;;;14.50;49.80;;;;;;5039882;28;20487;-82
2023/03/09 00:59:35;;;;;;;6.87;5.60;;;14.50;49.80;;;;;;5050274;28;20529;-81
2023/03/09 01:02:03;;;;;;;8.63;5.43;;;14.50;49.80;;;;;;5040718;28;20544;-81
2023/03/09 01:04:34;;;;;;;7.03;5.67;;;14.50;49.80;;;;;;5040858;28;20487;-80
2023/03/09 01:07:02;;;;;;;9.33;6.00;;;14.50;49.90;;;;;;5033758;28;20449;-81
2023/03/09 01:09:30;;;;;;;8.50;6.00;;;14.50;49.90;;;;;;5031944;28;20447;-81
2023/03/09 01:11:57;;;;;;;6.97;5.60;;;14.50;49.90;;;;;;5041965;28;20463;-81
2023/03/09 01:14:26;;;;;;;6.40;5.10;;;14.50;49.90;;;;;;5041689;28;20439;-81
2023/03/09 01:16:53;;;;;;;6.83;5.40;;;14.50;49.90;;;;;;5036432;28;20443;-82
2023/03/09 01:19:22;;;;;;;5.27;4.67;;;14.50;50.00;;;;;;5040203;28;20972;-80
2023/03/09 01:21:51;;;;;;;5.63;4.90;;;14.50;50.00;;;;;;5039924;28;20475;-81
2023/03/09 01:24:19;;;;;;;6.33;5.17;;;14.50;50.10;;;;;;5026918;28;20476;-80
2023/03/09 01:26:47;;;;;;;6.50;4.80;;;14.50;50.10;;;;;;5028293;28;20482;-80
2023/03/09 01:29:15;;;;;;;5.10;4.60;;;14.50;50.20;;;;;;5036392;28;20448;-81
2023/03/09 01:31:47;;;;;;;4.93;4.43;;;14.40;50.10;;;;;;5038741;28;20974;-80
2023/03/09 01:34:15;;;;;;;6.40;5.13;;;14.40;50.20;;;;;;5032813;28;20478;-81
2023/03/09 01:36:44;;;;;;;5.97;4.90;;;14.40;50.10;;;;;;5034719;28;20455;-80
2023/03/09 01:39:13;;;;;;;5.47;4.97;;;14.40;50.20;;;;;;5041533;28;20522;-81
2023/03/09 01:41:41;;;;;;;6.17;5.07;;;14.40;50.20;;;;;;5040957;28;20466;-80
2023/03/09 01:44:10;;;;;;;5.23;4.53;;;14.40;50.20;;;;;;5037537;28;20467;-80
2023/03/09 01:46:49;;;;;;;5.63;4.70;;;14.40;50.20;;;;;;5033843;28;20454;-81
2023/03/09 01:49:21;;;;;;;5.47;4.37;;;14.40;50.10;;;;;;5035936;28;20440;-80
2023/03/09 01:51:53;;;;;;;5.20;4.70;;;14.40;50.30;;;;;;5039077;28;20447;-81
2023/03/09 01:54:24;;;;;;;4.50;4.10;;;14.40;50.30;;;;;;5035446;28;20475;-80
2023/03/09 01:56:54;;;;;;;5.63;4.33;;;14.40;50.40;;;;;;5032581;28;20454;-80
2023/03/09 01:59:23;;;;;;;4.80;4.40;;;14.40;50.30;;;;;;5036246;28;20444;-79
2023/03/09 02:01:51;;;;;;;3.90;3.60;;;14.30;50.40;;;;;;5031428;28;20447;-80
2023/03/09 02:04:22;;;;;;;4.67;4.27;;;14.30;50.40;;;;;;5043106;28;20477;-80
2023/03/09 02:06:51;;;;;;;5.17;4.37;;;14.30;50.40;;;;;;5041822;28;20458;-81
2023/03/09 02:09:25;;;;;;;5.50;4.30;;;14.30;50.40;;;;;;5034050;28;20447;-80
2023/03/09 02:11:54;;;;;;;4.67;4.27;;;14.40;50.40;;;;;;5035892;28;20481;-81
2023/03/09 02:14:21;;;;;;;4.13;3.80;;;14.30;50.30;;;;;;5032702;28;20455;-80
2023/03/09 02:16:50;;;;;;;4.20;3.90;;;14.30;50.40;;;;;;5038126;28;20454;-80
2023/03/09 02:19:24;;;;;;;4.40;4.00;;;14.30;50.40;;;;;;5042909;28;20944;-79
2023/03/09 02:21:54;;;;;;;4.00;3.60;;;14.30;50.50;;;;;;5033453;28;20451;-81
2023/03/09 02:24:26;;;;;;;4.70;4.30;;;14.30;50.50;;;;;;5035827;28;20502;-79
2023/03/09 02:26:55;;;;;;;5.07;4.57;;;14.30;50.50;;;;;;5029830;28;20479;-80
2023/03/09 02:29:24;;;;;;;4.23;3.80;;;14.30;50.60;;;;;;5033574;28;20457;-79
2023/03/09 02:31:52;;;;;;;4.13;3.83;;;14.30;50.60;;;;;;5034840;28;20462;-82
2023/03/09 02:34:20;;;;;;;4.50;3.63;;;14.30;50.60;;;;;;5030104;28;20443;-81
2023/03/09 02:36:48;;;;;;;4.10;3.70;;;14.20;50.50;;;;;;5029081;28;20445;-81
2023/03/09 02:39:20;;;;;;;4.33;3.80;;;14.30;50.70;;;;;;5043090;28;20454;-80
2023/03/09 02:41:48;;;;;;;4.00;3.70;;;14.20;50.60;;;;;;5036244;28;20557;-81
2023/03/09 02:44:16;;;;;;;4.83;3.73;;;14.20;50.60;;;;;;5040599;28;20562;-81
2023/03/09 02:46:45;;;;;;;3.73;3.53;;;14.20;50.70;;;;;;5038371;28;20459;-81
2023/03/09 02:49:13;;;;;;;3.60;3.40;;;14.20;50.70;;;;;;5029281;28;20488;-79
2023/03/09 02:51:41;;;;;;;5.27;3.70;;;14.20;50.80;;;;;;5033283;28;20451;-81
2023/03/09 02:54:09;;;;;;;3.90;3.60;;;14.20;50.70;;;;;;5034570;28;20492;-80
2023/03/09 02:56:37;;;;;;;3.40;3.10;;;14.20;50.80;;;;;;5036836;28;20486;-81
2023/03/09 02:59:05;;;;;;;3.70;3.40;;;14.20;50.80;;;;;;5033047;28;20474;-81
2023/03/09 03:01:33;;;;;;;3.30;3.10;;;14.10;50.70;;;;;;5033911;28;20538;-80
2023/03/09 03:04:03;;;;;;;3.90;3.60;;;14.10;50.80;;;;;;5042095;28;20467;-80
2023/03/09 03:06:31;;;;;;;3.40;3.20;;;14.10;50.80;;;;;;5029703;28;21022;-81
2023/03/09 03:08:59;;;;;;;3.60;3.37;;;14.10;50.90;;;;;;5030364;28;20458;-80
2023/03/09 03:11:27;;;;;;;3.77;3.47;;;14.10;50.80;;;;;;5032866;28;20464;-81
2023/03/09 03:13:55;;;;;;;3.57;3.27;;;14.10;50.80;;;;;;5034336;28;20451;-81
2023/03/09 03:16:23;;;;;;;3.63;3.40;;;14.10;50.90;;;;;;5035656;28;20475;-81
2023/03/09 03:18:51;;;;;;;3.77;3.47;;;14.10;50.90;;;;;;5042995;28;20508;-81
2023/03/09 03:21:21;;;;;;;3.60;3.30;;;14.10;50.80;;;;;;5037713;28;20865;-81
2023/03/09 03:23:50;;;;;;;3.37;3.10;;;14.10;50.90;;;;;;5031365;28;20483;-79
2023/03/09 03:26:18;;;;;;;3.20;2.97;;;14.20;51.00;;;;;;5031870;28;20486;-80
2023/03/09 03:28:46;;;;;;;3.63;3.23;;;14.10;50.90;;;;;;5032724;28;20456;-81
2023/03/09 03:31:14;;;;;;;3.30;3.00;;;14.10;51.00;;;;;;5037965;28;20455;-79
2023/03/09 03:33:41;;;;;;;3.40;3.20;;;14.10;51.00;;;;;;5028181;28;20451;-81
2023/03/09 03:36:09;;;;;;;3.37;3.17;;;14.10;51.00;;;;;;5046602;28;20485;-81
2023/03/09 03:38:40;;;;;;;3.97;3.57;;;14.10;51.00;;;;;;5036636;28;20478;-80
2023/03/09 03:41:08;;;;;;;3.77;3.47;;;14.10;51.00;;;;;;5033796;28;21014;-82
2023/03/09 03:43:36;;;;;;;3.83;3.53;;;14.10;51.10;;;;;;5034383;28;20455;-82
2023/03/09 03:46:03;;;;;;;3.47;3.27;;;14.10;51.10;;;;;;5042280;28;20474;-82
2023/03/09 03:48:31;;;;;;;3.50;3.30;;;14.10;51.10;;;;;;5036366;28;20546;-82
2023/03/09 03:50:59;;;;;;;3.73;3.43;;;14.00;51.00;;;;;;5030472;28;20458;-81
2023/03/09 03:53:27;;;;;;;2.87;2.67;;;14.00;51.10;;;;;;5032916;28;20463;-82
2023/03/09 03:55:56;;;;;;;3.00;2.80;;;14.00;51.00;;;;;;5032779;28;20550;-82
2023/03/09 03:58:24;;;;;;;3.20;3.00;;;14.00;51.10;;;;;;5037153;28;20482;-81
2023/03/09 04:00:53;;;;;;;3.63;3.33;;;14.00;51.10;;;;;;5040094;28;20447;-81
2023/03/09 04:03:20;;;;;;;3.33;3.13;;;14.00;51.10;;;;;;5039044;28;20463;-82
2023/03/09 04:05:49;;;;;;;3.50;3.20;;;14.00;51.20;;;;;;5029698;28;20481;-82
2023/03/09 04:08:17;;;;;;;3.43;3.13;;;14.00;51.20;;;;;;5032345;28;20464;-80
2023/03/09 04:10:45;;;;;;;3.50;3.20;;;14.00;51.20;;;;;;5036336;28;20469;-82
2023/03/09 04:13:15;;;;;;;3.23;3.03;;;14.00;51.20;;;;;;5046282;28;20450;-81
2023/03/09 04:15:43;;;;;;;4.63;3.43;;;14.00;51.20;;;;;;5029135;28;20456;-82
2023/03/09 04:18:11;;;;;;;3.13;2.93;;;14.00;51.20;;;;;;5037931;28;20453;-82
2023/03/09 04:20:39;;;;;;;3.03;2.83;;;14.00;51.20;;;;;;5047450;28;20506;-80
2023/03/09 04:23:07;;;;;;;2.60;2.43;;;14.00;51.30;;;;;;5038502;28;20456;-80
2023/03/09 04:25:35;;;;;;;3.40;3.20;;;14.00;51.30;;;;;;5031988;28;20483;-82
2023/03/09 04:28:03;;;;;;;3.50;3.20;;;14.00;51.30;;;;;;5040321;28;20449;-81
2023/03/09 04:30:33;;;;;;;3.00;2.80;;;14.00;51.30;;;;;;5035320;28;20466;-80
2023/03/09 04:33:01;;;;;;;3.47;3.17;;;14.00;51.30;;;;;;5039258;28;20451;-83
2023/03/09 04:35:29;;;;;;;3.57;3.30;;;14.00;51.40;;;;;;5038887;28;20470;-81
2023/03/09 04:37:59;;;;;;;3.43;3.17;;;14.00;51.40;;;;;;5032647;28;20505;-80
2023/03/09 04:40:27;;;;;;;3.17;2.97;;;14.00;51.40;;;;;;5031552;28;20972;-81
2023/03/09 04:42:54;;;;;;;3.03;2.83;;;14.00;51.50;;;;;;5040019;28;20481;-79
2023/03/09 04:45:22;;;;;;;3.00;2.80;;;14.00;51.50;;;;;;5039794;28;20471;-82
2023/03/09 04:47:52;;;;;;;3.63;3.37;;;13.90;51.40;;;;;;5032567;28;20515;-82
2023/03/09 04:50:20;;;;;;;3.07;2.77;;;13.90;51.40;;;;;;5038611;28;20515;-80
2023/03/09 04:52:49;;;;;;;3.23;3.03;;;13.90;51.40;;;;;;5038265;28;20455;-81
2023/03/09 04:55:17;;;;;;;3.63;3.27;;;13.90;51.50;;;;;;5037740;28;20473;-81
2023/03/09 04:57:46;;;;;;;3.37;3.07;;;13.90;51.50;;;;;;5041323;28;20539;-80
2023/03/09 05:00:15;;;;;;;3.40;2.90;;;13.90;51.50;;;;;;5032258;28;20528;-81
2023/03/09 05:02:43;;;;;;;3.47;3.27;;;13.90;51.50;;;;;;5036235;28;20446;-81
2023/03/09 05:05:12;;;;;;;3.00;2.80;;;13.90;51.40;;;;;;5044320;28;20502;-81
2023/03/09 05:07:40;;;;;;;2.60;2.50;;;13.90;51.40;;;;;;5036262;28;20451;-81
2023/03/09 05:10:09;;;;;;;3.37;3.07;;;13.90;51.50;;;;;;5035425;28;20466;-81
2023/03/09 05:12:37;;;;;;;3.10;2.90;;;13.90;51.50;;;;;;5032543;28;20550;-81
2023/03/09 05:15:06;;;;;;;2.67;2.47;;;13.90;51.50;;;;;;5030126;28;20597;-81
2023/03/09 05:17:34;;;;;;;3.03;2.80;;;13.90;52.10;;;;;;5031204;28;20462;-81
2023/03/09 05:20:08;;;;;;;3.00;2.80;;;13.90;51.60;;;;;;5030716;28;20452;-81
2023/03/09 05:22:37;;;;;;;3.17;2.97;;;13.90;51.60;;;;;;5032880;28;20448;-81
2023/03/09 05:25:07;;;;;;;2.90;2.70;;;13.80;51.40;;;;;;5028744;28;20468;-83
2023/03/09 05:27:35;;;;;;;3.37;3.07;;;13.90;51.60;;;;;;5034958;28;20479;-81
2023/03/09 05:30:03;;;;;;;3.27;3.07;;;13.90;51.60;;;;;;5043863;28;20465;-82
2023/03/09 05:32:31;;;;;;;3.40;3.20;;;13.80;51.40;;;;;;5030029;28;20459;-80
2023/03/09 05:34:59;;;;;;;2.73;2.63;;;13.80;51.50;;;;;;5037206;28;20475;-81
2023/03/09 05:37:27;;;;;;;3.57;3.20;;;13.90;51.60;;;;;;5036342;28;20535;-80
2023/03/09 05:39:57;;;;;;;2.97;2.80;;;13.80;51.60;;;;;;5034969;28;20448;-82
2023/03/09 05:42:24;;;;;;;2.60;2.50;;;13.80;51.50;;;;;;5028335;28;20471;-81
2023/03/09 05:44:52;;;;;;;3.03;2.83;;;13.80;51.60;;;;;;5037893;28;20472;-82
2023/03/09 05:47:20;;;;;;;2.97;2.77;;;13.80;51.80;;;;;;5038986;28;20458;-81
2023/03/09 05:49:49;;;;;;;2.50;2.40;;;13.80;51.60;;;;;;5039266;28;20519;-81
2023/03/09 05:52:17;;;;;;;2.40;2.30;;;13.80;51.70;;;;;;5033385;28;20539;-80
2023/03/09 05:54:45;;;;;;;2.90;2.70;;;13.80;51.60;;;;;;5039000;28;20551;-80
2023/03/09 05:57:14;;;;;;;3.10;2.90;;;13.80;51.80;;;;;;5035920;28;20487;-81
2023/03/09 05:59:42;;;;;;;3.13;2.90;;;13.80;51.70;;;;;;5036006;28;20459;-81
2023/03/09 06:02:10;;;;;;;2.70;2.50;;;13.80;51.80;;;;;;5043453;28;20483;-81
2023/03/09 06:04:38;;;;;;;3.60;2.83;;;13.70;51.70;;;;;;5034086;28;20473;-81
2023/03/09 06:07:06;;;;;;;2.80;2.50;;;13.70;51.70;;;;;;5034434;28;20471;-82
2023/03/09 06:09:34;;;;;;;2.90;2.70;;;13.80;51.80;;;;;;5041954;28;20450;-82
2023/03/09 06:12:02;;;;;;;2.50;2.40;;;13.70;51.70;;;;;;5034349;28;21033;-83
2023/03/09 06:14:31;;;;;;;2.67;2.57;;;13.70;51.70;;;;;;5036178;28;20493;-82
2023/03/09 06:17:01;;;;;;;2.80;2.70;;;13.70;51.70;;;;;;5029848;28;20456;-81
2023/03/09 06:19:29;;;;;;;3.20;2.97;;;13.70;51.80;;;;;;5034610;28;20455;-82
2023/03/09 06:21:57;;;;;;;2.60;2.50;;;13.70;51.80;;;;;;5034866;28;20444;-82
2023/03/09 06:24:25;;;;;;;2.97;2.73;;;13.70;51.70;;;;;;5035477;28;20455;-81
2023/03/09 06:26:53;;;;;;;3.33;3.13;;;13.80;51.80;;;;;;5031975;28;20471;-81
2023/03/09 06:29:22;;;;;;;2.83;2.63;;;13.70;51.70;;;;;;5028010;28;20461;-82
2023/03/09 06:31:51;;;;;;;2.83;2.73;;;13.80;51.80;;;;;;5027722;28;20463;-82
2023/03/09 06:34:19;;;;;;;2.60;2.50;;;13.70;51.70;;;;;;5039540;28;20443;-83
2023/03/09 06:36:47;;;;;;;3.07;2.80;;;13.70;51.70;;;;;;5032022;28;20522;-83
2023/03/09 06:39:15;;;;;;;3.37;2.80;;;13.80;51.90;;;;;;5035420;28;20476;-83
2023/03/09 06:41:43;;;;;;;3.00;2.80;;;13.80;51.80;;;;;;5032783;28;20486;-83
2023/03/09 06:44:12;;;;;;;2.70;2.50;;;13.80;51.80;;;;;;5036674;28;20451;-82
2023/03/09 06:46:40;;;;;;;3.40;3.10;;;13.80;51.80;;;;;;5034993;28;20475;-82
2023/03/09 06:49:10;;;;;;;2.70;2.50;;;13.80;51.80;;;;;;5037440;28;20456;-82
2023/03/09 06:51:38;;;;;;;2.77;2.57;;;13.80;51.80;;;;;;5044725;28;20465;-82
2023/03/09 06:54:06;;;;;;;2.70;2.50;;;13.80;51.90;;;;;;5026854;28;20456;-81
2023/03/09 06:56:34;;;;;;;2.60;2.40;;;13.80;51.80;;;;;;5040658;28;20530;-82
2023/03/09 06:59:03;;;;;;;2.77;2.57;;;13.90;51.80;;;;;;5032118;28;20470;-81
2023/03/09 07:01:31;;;;;;;2.57;2.47;;;13.90;51.80;;;;;;5039451;28;20462;-81
2023/03/09 07:03:59;;;;;;;2.67;2.57;;;13.90;51.90;;;;;;5036718;28;20470;-82
2023/03/09 07:06:29;;;;;;;2.40;2.30;;;13.90;52.00;;;;;;5023756;28;20476;-82
2023/03/09 07:08:57;;;;;;;2.40;2.27;;;13.90;51.80;;;;;;5033754;28;20470;-82
2023/03/09 07:11:25;;;;;;;2.90;2.70;;;13.90;51.80;;;;;;5034689;28;20478;-81
2023/03/09 07:13:53;;;;;;;2.83;2.63;;;13.90;51.80;;;;;;5033173;28;20452;-83
2023/03/09 07:16:22;;;;;;;2.83;2.37;;;13.90;51.80;;;;;;5030461;28;20487;-81
2023/03/09 07:18:51;;;;;;;2.93;2.73;;;14.00;51.90;;;;;;5034296;28;20456;-82
2023/03/09 07:21:19;;;;;;;2.60;2.50;;;14.00;51.90;;;;;;5033036;28;20463;-81
2023/03/09 07:23:48;;;;;;;2.50;2.40;;;13.90;51.80;;;;;;5035994;28;20466;-81
2023/03/09 07:26:16;;;;;;;2.67;2.57;;;14.00;51.80;;;;;;5037318;28;20553;-81
2023/03/09 07:28:44;;;;;;;2.40;2.30;;;14.00;51.70;;;;;;5030892;28;20455;-81
2023/03/09 07:31:13;;;;;;;2.40;2.30;;;14.10;51.80;;;;;;5038373;28;20550;-82
2023/03/09 07:33:41;;;;;;;2.53;2.43;;;14.10;51.80;;;;;;5034105;28;20467;-81
2023/03/09 07:36:09;;;;;;;2.50;2.40;;;14.10;51.80;;;;;;5040732;28;20467;-82
2023/03/09 07:38:37;;;;;;;2.50;2.40;;;14.20;51.80;;;;;;5037396;28;20463;-82
2023/03/09 07:41:07;;;;;;;3.67;3.37;;;14.20;51.70;;;;;;5033873;28;20475;-82
2023/03/09 07:43:43;;;;;;;2.50;2.40;;;14.30;51.60;;;;;;5034020;28;20458;-82
2023/03/09 07:46:12;;;;;;;2.80;2.70;;;14.30;51.70;;;;;;5048310;28;20477;-81
2023/03/09 07:48:40;;;;;;;2.47;2.37;;;14.30;51.70;;;;;;5044660;28;20530;-82
2023/03/09 07:51:08;;;;;;;2.50;2.40;;;14.40;51.70;;;;;;5039641;28;20451;-82
2023/03/09 07:53:41;;;;;;;2.37;2.27;;;14.50;51.80;;;;;;5035245;28;20454;-81
2023/03/09 07:56:13;;;;;;;2.70;2.60;;;14.50;51.60;;;;;;5032080;28;20495;-81
2023/03/09 07:58:41;;;;;;;3.20;3.00;;;14.60;51.60;;;;;;5041965;28;20457;-81
2023/03/09 08:01:16;;;;;;;2.83;2.73;;;14.60;51.60;;;;;;5037378;28;20451;-81
2023/03/09 08:03:44;;;;;;;3.10;2.90;;;14.60;51.40;;;;;;5040570;28;20510;-81
2023/03/09 08:06:20;;;;;;;2.90;2.70;;;14.70;51.40;;;;;;5036415;28;20497;-81
2023/03/09 08:08:48;;;;;;;2.70;2.60;;;14.70;51.50;;;;;;5038846;28;20455;-81
2023/03/09 08:11:19;;;;;;;3.17;2.87;;;14.80;51.50;;;;;;5045167;28;20475;-83
2023/03/09 08:13:46;;;;;;;2.60;2.50;;;14.80;51.60;;;;;;5038637;28;20459;-84
2023/03/09 08:16:14;;;;;;;2.63;2.43;;;14.90;51.50;;;;;;5031046;28;20988;-84
2023/03/09 08:18:42;;;;;;;2.60;2.43;;;14.90;51.40;;;;;;5044281;28;20478;-83
2023/03/09 08:21:11;;;;;;;2.50;2.40;;;14.90;51.40;;;;;;5046135;28;20530;-83
2023/03/09 08:23:40;;;;;;;2.60;2.40;;;15.00;51.40;;;;;;5042733;28;20519;-83
2023/03/09 08:26:09;;;;;;;2.50;2.40;;;15.00;51.40;;;;;;5047253;28;20468;-83
2023/03/09 08:28:38;;;;;;;2.33;2.13;;;15.00;51.20;;;;;;5033160;28;20475;-84
2023/03/09 08:31:06;;;;;;;2.13;2.03;;;15.10;51.30;;;;;;5031824;28;20539;-84
2023/03/09 08:33:34;;;;;;;3.10;2.50;;;15.10;51.30;;;;;;5036552;28;20440;-83
2023/03/09 08:36:10;;;;;;;2.70;2.50;;;15.10;51.30;;;;;;5033441;28;20475;-84
2023/03/09 08:38:38;;;;;;;2.40;2.30;;;15.10;51.20;;;;;;5041298;28;20436;-84
2023/03/09 08:41:06;;;;;;;2.73;2.53;;;15.10;51.80;;;;;;5029202;28;20467;-84
2023/03/09 08:43:34;;;;;;;2.93;2.67;;;15.10;51.30;;;;;;5039666;28;20447;-84
2023/03/09 08:46:03;;;;;;;2.67;2.47;;;15.10;51.30;;;;;;5043474;28;20451;-83
2023/03/09 08:48:31;;;;;;;3.03;2.83;;;15.10;51.30;;;;;;5033716;28;20473;-82
2023/03/09 08:51:00;;;;;;;4.30;2.40;;;15.20;51.40;;;;;;5041269;28;20532;-82
2023/03/09 08:53:30;;;;;;;2.93;2.60;;;15.20;51.30;;;;;;5047154;28;20447;-82
2023/03/09 08:55:58;;;;;;;3.40;3.10;;;15.20;51.30;;;;;;5028949;28;20532;-82
2023/03/09 08:58:26;;;;;;;2.90;2.70;;;15.20;51.30;;;;;;5034832;28;20444;-83
2023/03/09 09:00:54;;;;;;;5.50;2.80;;;15.20;51.30;;;;;;5038572;28;20534;-82
2023/03/09 09:03:24;;;;;;;2.77;2.67;;;15.10;51.30;;;;;;5029590;28;20454;-83
2023/03/09 09:05:52;;;;;;;3.10;2.80;;;15.10;51.30;;;;;;5031809;28;20542;-82
2023/03/09 09:08:20;;;;;;;3.30;3.00;;;15.10;51.30;;;;;;5034187;28;20537;-83
2023/03/09 09:10:49;;;;;;;3.00;2.80;;;15.20;52.00;;;;;;5028022;28;20452;-83
2023/03/09 09:13:17;;;;;;;3.57;3.27;;;15.20;51.40;;;;;;5034966;28;20518;-80
2023/03/09 09:15:45;;;;;;;3.33;3.10;;;15.20;51.40;;;;;;5029831;28;20463;-82
2023/03/09 09:18:13;;;;;;;3.00;2.70;;;15.20;51.40;;;;;;5034247;28;20447;-81
2023/03/09 09:20:43;;;;;;;3.10;2.90;;;15.20;51.30;;;;;;5038876;28;20444;-83
2023/03/09 09:23:11;;;;;;;3.17;2.87;;;15.20;51.30;;;;;;5040498;28;20442;-83
2023/03/09 09:25:39;;;;;;;2.93;2.77;;;15.20;51.30;;;;;;5043336;28;20481;-83
2023/03/09 09:28:07;;;;;;;3.10;2.90;;;15.30;51.30;;;;;;5032862;28;20467;-83
2023/03/09 09:30:36;;;;;;;3.43;3.13;;;15.20;51.20;;;;;;5033772;28;20444;-84
2023/03/09 09:33:05;;;;;;;2.80;2.60;;;15.20;51.30;;;;;;5043625;28;20482;-82
2023/03/09 09:35:33;;;;;;;3.07;2.87;;;15.20;51.30;;;;;;5042008;28;20474;-82
2023/03/09 09:38:03;;;;;;;3.20;3.00;;;15.10;51.30;;;;;;5043736;28;20454;-82
2023/03/09 09:40:31;;;;;;;3.00;2.80;;;15.20;51.40;;;;;;5039435;28;20453;-82
2023/03/09 09:42:59;;;;;;;3.17;2.97;;;15.20;51.50;;;;;;5030671;28;20536;-82
2023/03/09 09:45:30;;;;;;;3.10;2.77;;;15.10;51.30;;;;;;5025747;28;20555;-83
2023/03/09 09:47:58;;;;;;;3.70;3.30;;;15.10;51.40;;;;;;5036102;28;20473;-83
2023/03/09 09:50:30;;;;;;;3.10;2.90;;;15.10;51.50;;;;;;5042488;28;20455;-82
2023/03/09 09:53:00;;;;;;;2.60;2.50;;;15.10;51.50;;;;;;5035418;28;20454;-83
2023/03/09 09:55:32;;;;;;;3.17;2.97;;;15.10;51.50;;;;;;5047243;28;20469;-82
2023/03/09 09:58:02;;;;;;;3.13;2.87;;;15.10;51.60;;;;;;5037189;28;20448;-83
2023/03/09 10:00:34;;;;;;;3.47;3.17;;;15.00;51.50;;;;;;5051209;28;20566;-83
2023/03/09 10:03:10;;;;;;;3.63;3.33;;;15.00;51.50;;;;;;5047948;28;20447;-83
2023/03/09 10:05:43;;;;;;;3.13;2.93;;;15.00;51.50;;;;;;5042387;28;20473;-83
2023/03/09 10:08:22;;;;;;;3.77;3.47;;;15.00;51.60;;;;;;5037818;28;20475;-83
2023/03/09 10:10:52;;;;;;;3.57;3.27;;;15.00;51.60;;;;;;5039768;28;20462;-83
2023/03/09 10:13:23;;;;;;;3.50;3.20;;;15.00;51.60;;;;;;5051042;28;20542;-83
2023/03/09 10:15:51;;;;;;;3.30;3.10;;;14.90;51.60;;;;;;5047385;28;20467;-83
2023/03/09 10:18:35;;;;;;;3.03;2.83;;;15.00;51.70;;;;;;5046932;28;20527;-83
2023/03/09 10:21:04;;;;;;;3.77;3.47;;;14.90;52.30;;;;;;5057942;28;20453;-83
2023/03/09 10:23:33;;;;;;;3.73;3.30;;;14.90;51.60;;;;;;5058849;28;20447;-83
2023/03/09 10:26:03;;;;;;;3.33;3.03;;;14.90;51.60;;;;;;5057962;28;20474;-83
2023/03/09 10:28:35;;;;;;;3.43;3.13;;;14.90;51.70;;;;;;5058211;28;20561;-83
2023/03/09 10:31:05;;;;;;;3.23;2.93;;;15.00;51.80;;;;;;5058973;28;20447;-83
2023/03/09 10:33:38;;;;;;;3.37;3.10;;;15.00;51.60;;;;;;5058655;28;20446;-83
2023/03/09 10:36:07;;;;;;;3.30;3.10;;;15.00;51.60;;;;;;5058596;28;20466;-83
2023/03/09 10:38:37;;;;;;;3.27;3.03;;;15.00;51.60;;;;;;5058353;28;20446;-80
2023/03/09 10:41:11;;;;;;;3.63;3.37;;;15.00;51.50;;;;;;5060187;28;20482;-83
2023/03/09 10:43:39;;;;;;;3.63;3.33;;;15.00;51.50;;;;;;5059652;28;20470;-83
2023/03/09 10:46:13;;;;;;;3.70;3.40;;;15.00;51.50;;;;;;5059885;28;20500;-83
2023/03/09 10:48:41;;;;;;;4.23;3.83;;;15.10;51.60;;;;;;5061091;28;21014;-83
2023/03/09 10:51:22;;;;;;;3.90;3.60;;;15.10;51.50;;;;;;5057954;28;20454;-83
2023/03/09 10:53:52;;;;;;;4.17;3.87;;;15.20;51.60;;;;;;5058156;28;20446;-82
2023/03/09 10:56:22;;;;;;;4.00;3.67;;;15.20;51.50;;;;;;5057175;28;20467;-82
2023/03/09 10:59:12;;;;;;;4.70;4.30;;;15.20;51.40;;;;;;5056830;28;20442;-82
2023/03/09 11:01:41;;;;;;;4.30;3.70;;;15.20;51.30;;;;;;5056638;28;20434;-83
2023/03/09 11:04:28;;;;;;;4.00;3.70;;;15.20;51.30;;;;;;5057553;28;20450;-82
2023/03/09 11:06:56;;;;;;;3.60;3.30;;;15.30;51.40;;;;;;5064654;28;20465;-82
2023/03/09 11:09:29;;;;;;;3.67;3.37;;;15.30;52.00;;;;;;5054905;28;20477;-82
2023/03/09 11:12:10;;;;;;;4.33;3.93;;;15.30;51.40;;;;;;5055769;28;20491;-80
2023/03/09 11:14:43;;;;;;;3.73;3.43;;;15.40;51.30;;;;;;5056245;28;20465;-81
2023/03/09 11:17:37;;;;;;;5.10;3.77;;;15.40;51.30;;;;;;5055402;28;20442;-81
2023/03/09 11:20:26;;;;;;;3.77;3.47;;;15.40;51.20;;;;;;5056877;28;20604;-81
2023/03/09 11:23:00;;;;;;;3.37;3.17;;;15.30;51.20;;;;;;5055978;28;20450;-82
2023/03/09 11:25:35;;;;;;;3.43;3.20;;;15.30;51.10;;;;;;5055483;28;20466;-80
2023/03/09 11:28:11;;;;;;;3.97;3.67;;;15.30;51.10;;;;;;5055213;28;20433;-81
2023/03/09 11:30:39;;;;;;;3.80;3.10;;;15.30;51.20;;;;;;5056146;28;20434;-81
2023/03/09 11:33:09;;;;;;;3.53;3.33;;;15.30;51.20;;;;;;5056575;28;20434;-82
2023/03/09 11:35:38;;;;;;;3.53;3.33;;;15.30;51.20;;;;;;5057574;28;20473;-82
2023/03/09 11:38:07;;;;;;;4.00;3.70;;;15.40;51.30;;;;;;5056327;28;20481;-82
2023/03/09 11:40:35;;;;;;;3.40;3.20;;;15.40;51.20;;;;;;5056309;28;20446;-82
2023/03/09 11:43:15;;;;;;;4.07;3.80;;;15.40;51.20;;;;;;5056493;28;20450;-81
2023/03/09 11:45:43;;;;;;;4.23;3.60;;;15.50;51.20;;;;;;5056448;28;20470;-83
2023/03/09 11:48:16;;;;;;;3.70;3.40;;;15.50;51.20;;;;;;5056180;28;20483;-81
2023/03/09 11:50:45;;;;;;;3.60;3.30;;;15.50;51.20;;;;;;5056725;28;20502;-81
2023/03/09 11:53:15;;;;;;;3.50;3.30;;;15.60;51.20;;;;;;5056965;28;20430;-81
2023/03/09 11:55:47;;;;;;;3.20;3.00;;;15.50;51.00;;;;;;5056452;28;20550;-81
2023/03/09 11:58:19;;;;;;;3.93;3.63;;;15.60;51.10;;;;;;5056229;28;20453;-81
2023/03/09 12:00:49;;;;;;;3.20;3.00;;;15.60;51.10;;;;;;5057927;28;20430;-81
2023/03/09 12:03:19;;;;;;;3.50;3.20;;;15.60;51.00;;;;;;5056721;28;20431;-82
2023/03/09 12:05:50;;;;;;;3.40;3.20;;;15.60;51.10;;;;;;5056497;28;20893;-82
2023/03/09 12:08:20;;;;;;;3.40;3.20;;;15.70;51.00;;;;;;5056180;28;20445;-81
2023/03/09 12:10:49;;;;;;;3.50;3.30;;;15.70;51.00;;;;;;5059188;28;20453;-81
2023/03/09 12:13:21;;;;;;;3.40;3.20;;;15.70;50.90;;;;;;5060669;28;20449;-82
2023/03/09 12:15:51;;;;;;;3.40;3.20;;;15.70;50.70;;;;;;5060806;28;20458;-82
2023/03/09 12:18:21;;;;;;;3.60;3.30;;;15.70;50.90;;;;;;5060319;28;20466;-82
2023/03/09 12:20:50;;;;;;;3.90;3.60;;;15.70;50.80;;;;;;5060470;28;20473;-82
2023/03/09 12:23:42;;;;;;;3.37;3.17;;;15.70;50.80;;;;;;5060162;28;20438;-83
2023/03/09 12:26:23;;;;;;;4.03;3.73;;;15.70;50.80;;;;;;5060637;28;20565;-82
2023/03/09 12:29:16;;;;;;;3.57;3.23;;;15.70;50.80;;;;;;5061335;28;20474;-83
2023/03/09 12:31:44;;;;;;;4.10;3.80;;;15.70;50.80;;;;;;5060208;28;20447;-82
2023/03/09 12:34:26;;;;;;;3.87;3.57;;;15.70;50.90;;;;;;5059824;28;20453;-82
2023/03/09 12:36:56;;;;;;;3.67;3.40;;;15.70;50.90;;;;;;5060538;28;20442;-81
2023/03/09 12:39:40;;;;;;;3.50;3.20;;;15.70;50.90;;;;;;5059887;28;20439;-83
2023/03/09 12:42:26;;;;;;;3.53;3.33;;;15.70;50.90;;;;;;5060625;28;20462;-83
2023/03/09 12:45:00;;;;;;;3.70;3.50;;;15.70;50.90;;;;;;5060557;28;20549;-84
2023/03/09 12:47:36;;;;;;;3.70;3.40;;;15.70;50.80;;;;;;5050526;28;20510;-83
2023/03/09 12:50:06;;;;;;;3.80;3.53;;;15.60;50.80;;;;;;5033405;28;20490;-81
2023/03/09 12:52:42;;;;;;;3.83;3.53;;;15.60;50.90;;;;;;5043903;28;20447;-82
2023/03/09 12:55:14;;;;;;;3.83;3.53;;;15.60;50.90;;;;;;5034002;28;20471;-83
2023/03/09 12:57:42;;;;;;;3.20;3.00;;;15.50;50.80;;;;;;5046833;28;20469;-82
2023/03/09 13:00:30;;;;;;;3.63;3.43;;;15.50;50.80;;;;;;5035936;28;20443;-82